Time;durP1;ratioP1;P1;durP2;ratioP2;P2;SDS_P1;SDS_P2;PMS_P1;PMS_P2;Temp;Humidity;BMP_temperature;BMP_pressure;BME280_temperature;BME280_humidity;BME280_pressure;Samples;Min_cycle;Max_cycle;Signal;HPM_P1;HPM_P2
2022/08/25 00:00:40;;;;;;;2.67;1.95;;;;;;;17.68;54.49;96065.13;10326375;28;98839;-61
2022/08/25 00:05:45;;;;;;;2.58;2.00;;;;;;;17.71;54.71;96059.44;10338259;28;97232;-61
2022/08/25 00:10:51;;;;;;;2.92;2.17;;;;;;;17.62;55.11;96059.81;10325688;28;98430;-60
2022/08/25 00:16:05;;;;;;;2.55;2.28;;;;;;;17.44;55.89;96047.13;10320341;28;98311;-61
2022/08/25 00:21:08;;;;;;;3.13;2.45;;;;;;;17.35;56.15;96060.50;10331827;28;98531;-63
2022/08/25 00:26:14;;;;;;;2.90;2.38;;;;;;;17.33;55.17;96077.53;10328629;28;98507;-61
2022/08/25 00:31:20;;;;;;;2.35;2.08;;;;;;;17.36;54.90;96080.59;10328789;28;97667;-61
2022/08/25 00:36:23;;;;;;;2.58;2.22;;;;;;;17.38;55.75;96081.22;10330109;28;98518;-61
2022/08/25 00:41:27;;;;;;;2.53;2.10;;;;;;;17.42;54.38;96094.03;10329597;28;97737;-62
2022/08/25 00:46:33;;;;;;;3.03;2.13;;;;;;;17.27;53.25;96086.25;10331658;28;96919;-61
2022/08/25 00:51:39;;;;;;;2.50;1.88;;;;;;;17.14;54.40;96089.59;10334268;28;97850;-62
2022/08/25 00:56:44;;;;;;;2.67;2.38;;;;;;;16.91;56.49;96084.56;10330006;28;97101;-61
2022/08/25 01:01:48;;;;;;;3.40;2.40;;;;;;;16.80;57.22;96096.44;10327093;28;98403;-60
2022/08/25 01:06:51;;;;;;;4.75;2.40;;;;;;;16.67;57.12;96083.09;10326420;28;98682;-61
2022/08/25 01:11:56;;;;;;;2.78;2.30;;;;;;;16.59;57.79;96076.16;10330667;28;97792;-60
2022/08/25 01:16:59;;;;;;;3.33;2.67;;;;;;;16.55;57.91;96075.69;10322106;28;98972;-63
2022/08/25 01:22:04;;;;;;;4.95;2.92;;;;;;;16.52;59.69;96081.38;10325685;28;98743;-61
2022/08/25 01:27:08;;;;;;;3.22;2.92;;;;;;;16.52;58.79;96067.34;10325082;28;97060;-60
2022/08/25 01:32:13;;;;;;;6.30;3.05;;;;;;;16.44;59.70;96055.13;10325501;28;96942;-60
2022/08/25 01:37:17;;;;;;;;;;;;;;;16.45;59.05;96080.50;10328237;28;97107;-60
2022/08/25 01:42:34;;;;;;;3.92;2.92;;;;;;;16.39;58.83;96076.75;10324656;28;97862;-60
2022/08/25 01:47:37;;;;;;;3.30;2.17;;;;;;;16.42;58.20;96086.13;10326368;28;98604;-61
2022/08/25 01:52:51;;;;;;;4.00;2.90;;;;;;;16.33;59.46;96090.72;10333029;28;99080;-59
2022/08/25 01:57:54;;;;;;;3.47;2.47;;;;;;;16.26;59.51;96092.47;10322724;28;97664;-60
2022/08/25 02:02:57;;;;;;;3.28;2.60;;;;;;;16.28;59.21;96097.56;10326450;28;98259;-61
2022/08/25 02:08:01;;;;;;;2.83;2.55;;;;;;;16.17;60.16;96093.56;10319323;28;97809;-60
2022/08/25 02:13:05;;;;;;;3.30;2.57;;;;;;;15.94;60.54;96077.91;10331425;28;98456;-60
2022/08/25 02:18:10;;;;;;;3.95;2.78;;;;;;;15.91;60.89;96080.91;10319111;28;97527;-60
2022/08/25 02:23:14;;;;;;;3.17;2.50;;;;;;;15.84;60.24;96062.38;10322084;28;98355;-59
2022/08/25 02:28:17;;;;;;;3.60;2.70;;;;;;;15.98;60.01;96058.94;10325486;28;98992;-61
2022/08/25 02:33:21;;;;;;;3.00;2.55;;;;;;;15.90;61.18;96068.75;10323582;28;98208;-60
2022/08/25 02:38:26;;;;;;;3.30;2.97;;;;;;;15.74;60.96;96062.69;10330517;28;96853;-59
2022/08/25 02:43:29;;;;;;;2.63;2.38;;;;;;;15.64;60.84;96064.78;10326981;28;98638;-60
2022/08/25 02:48:32;;;;;;;2.75;2.25;;;;;;;15.47;60.84;96066.78;10323631;28;96900;-59
2022/08/25 02:53:38;;;;;;;3.58;2.63;;;;;;;15.43;61.85;96074.22;10329524;28;97151;-60
2022/08/25 02:58:43;;;;;;;3.13;2.50;;;;;;;15.39;61.71;96065.06;10324899;28;98171;-60
2022/08/25 03:03:47;;;;;;;3.38;2.75;;;;;;;15.44;60.75;96078.50;10324073;28;98708;-59
2022/08/25 03:08:52;;;;;;;3.75;2.40;;;;;;;15.46;60.78;96073.88;10320942;28;98630;-61
2022/08/25 03:13:55;;;;;;;3.10;2.20;;;;;;;15.54;60.50;96064.22;10329720;28;97144;-60
2022/08/25 03:18:58;;;;;;;2.80;2.60;;;;;;;15.53;61.28;96058.16;10325543;28;99083;-60
2022/08/25 03:24:04;;;;;;;4.57;3.22;;;;;;;15.32;62.69;96056.22;10328185;28;98267;-61
2022/08/25 03:29:07;;;;;;;3.90;3.00;;;;;;;15.11;63.70;96063.06;10334123;28;99008;-60
2022/08/25 03:34:09;;;;;;;5.30;2.90;;;;;;;15.07;63.58;96060.97;10327762;28;99010;-63
2022/08/25 03:39:14;;;;;;;4.03;2.95;;;;;;;15.04;63.75;96056.84;10337984;28;97014;-59
2022/08/25 03:44:19;;;;;;;3.42;2.53;;;;;;;15.11;63.46;96047.28;10326445;28;97652;-60
2022/08/25 03:49:23;;;;;;;3.30;2.73;;;;;;;15.17;62.89;96045.72;10326241;28;98495;-60
2022/08/25 03:54:27;;;;;;;3.55;2.85;;;;;;;15.24;62.55;96051.88;10332359;28;98600;-60
2022/08/25 03:59:30;;;;;;;3.83;3.17;;;;;;;15.13;62.57;96061.06;10332902;28;98731;-59
2022/08/25 04:04:34;;;;;;;4.18;2.90;;;;;;;15.15;62.72;96062.69;10329395;28;98580;-60
2022/08/25 04:09:38;;;;;;;3.47;2.83;;;;;;;15.17;62.10;96055.44;10342928;28;97725;-59
2022/08/25 04:14:41;;;;;;;3.03;2.60;;;;;;;15.10;63.45;96061.41;10330828;28;96885;-60
2022/08/25 04:19:44;;;;;;;4.55;3.28;;;;;;;15.03;63.92;96054.44;10329284;28;98307;-60
2022/08/25 04:24:48;;;;;;;3.05;2.78;;;;;;;14.93;64.38;96044.16;10335657;28;97627;-59
2022/08/25 04:29:51;;;;;;;6.63;3.20;;;;;;;14.97;64.14;96040.16;10328362;28;98847;-59
2022/08/25 04:34:54;;;;;;;3.80;2.90;;;;;;;14.94;63.87;96041.34;10332124;28;97707;-59
2022/08/25 04:39:58;;;;;;;4.57;2.88;;;;;;;14.84;63.73;96053.13;10339973;28;96972;-59
2022/08/25 04:45:02;;;;;;;3.20;2.90;;;;;;;14.89;63.50;96048.97;10331370;28;98627;-59
2022/08/25 04:50:06;;;;;;;4.20;3.00;;;;;;;14.78;63.97;96043.31;10327842;28;97429;-60
2022/08/25 04:55:11;;;;;;;4.07;2.92;;;;;;;14.76;64.75;96054.00;10323801;28;97774;-59
2022/08/25 05:00:15;;;;;;;3.60;3.03;;;;;;;14.88;63.26;96052.56;10331026;28;97673;-60
2022/08/25 05:05:18;;;;;;;3.75;3.35;;;;;;;14.95;64.39;96052.69;10330315;28;96948;-59
2022/08/25 05:10:23;;;;;;;3.20;2.75;;;;;;;14.95;63.47;96044.78;10338701;28;97676;-59
2022/08/25 05:20:48;;;;;;;4.20;2.72;;;;;;;14.95;63.03;96042.16;10326729;28;98452;-63
2022/08/25 05:25:52;;;;;;;3.65;2.85;;;;;;;15.11;63.01;96042.00;10328226;28;98669;-60
2022/08/25 05:30:58;;;;;;;3.67;2.50;;;;;;;15.11;62.96;96057.78;10323443;28;97343;-59
2022/08/25 05:36:01;;;;;;;5.43;2.88;;;;;;;14.98;63.69;96056.78;10329693;28;97087;-60
2022/08/25 05:41:08;;;;;;;3.35;3.03;;;;;;;14.96;64.65;96051.69;10322944;28;98865;-60
2022/08/25 05:46:12;;;;;;;4.85;3.25;;;;;;;15.02;64.56;96058.84;10325950;28;98449;-60
2022/08/25 05:51:16;;;;;;;4.20;3.47;;;;;;;15.11;63.89;96062.22;10330462;28;97867;-59
2022/08/25 05:56:21;;;;;;;7.10;3.95;;;;;;;15.27;64.43;96051.53;10332515;28;96937;-60
2022/08/25 06:06:47;;;;;;;4.50;2.70;;;;;;;15.58;62.42;96052.31;10319790;28;98714;-59
2022/08/25 06:11:52;;;;;;;3.05;2.38;;;;;;;15.68;61.51;96042.34;10323136;28;98475;-59
2022/08/25 06:16:57;;;;;;;2.42;2.22;;;;;;;15.80;60.26;96046.13;10323278;28;97450;-60
2022/08/25 06:22:00;;;;;;;3.50;2.67;;;;;;;15.99;59.00;96044.72;10328633;28;96850;-59
2022/08/25 06:27:04;;;;;;;3.05;2.40;;;;;;;16.16;57.93;96055.06;10326351;28;96830;-59
2022/08/25 06:32:07;;;;;;;4.55;2.42;;;;;;;16.29;58.42;96054.34;10323432;28;96839;-59
2022/08/25 06:37:10;;;;;;;3.22;2.85;;;;;;;16.50;59.49;96051.75;10327102;28;96824;-59
2022/08/25 06:42:14;;;;;;;4.60;2.80;;;;;;;16.75;59.63;96048.72;10318843;28;96840;-61
2022/08/25 06:47:18;;;;;;;4.53;2.78;;;;;;;16.83;58.31;96045.91;10309201;28;97764;-59
2022/08/25 06:52:21;;;;;;;5.35;2.92;;;;;;;17.00;57.80;96049.94;10328493;28;99102;-59
2022/08/25 06:57:34;;;;;;;4.03;2.95;;;;;;;17.21;57.10;96061.41;10332399;28;97082;-60
2022/08/25 07:02:38;;;;;;;3.83;2.53;;;;;;;17.27;56.34;96057.19;10320555;28;96828;-60
2022/08/25 07:07:43;;;;;;;5.85;3.15;;;;;;;17.28;56.50;96064.91;10326757;28;96811;-60
2022/08/25 07:12:47;;;;;;;7.18;3.58;;;;;;;17.37;57.22;96063.75;10331183;28;96780;-59
2022/08/25 07:17:50;;;;;;;7.93;4.23;;;;;;;17.50;57.91;96060.34;10325843;28;96802;-60
2022/08/25 07:22:53;;;;;;;8.45;4.72;;;;;;;17.73;58.31;96067.16;10328230;28;96858;-59
2022/08/25 07:27:57;;;;;;;8.13;4.13;;;;;;;17.92;56.70;96065.66;10321891;28;96851;-60
2022/08/25 07:33:00;;;;;;;6.93;4.78;;;;;;;18.11;57.16;96059.59;10329333;28;96955;-59
2022/08/25 07:38:08;;;;;;;6.90;4.60;;;;;;;18.24;56.50;96052.75;10329493;28;96837;-60
2022/08/25 07:43:16;;;;;;;5.07;3.55;;;;;;;18.48;56.66;96048.69;10328346;28;96819;-60
2022/08/25 07:48:19;;;;;;;3.55;2.95;;;;;;;18.63;55.60;96045.84;10329648;28;96825;-60
2022/08/25 07:53:22;;;;;;;4.93;2.80;;;;;;;18.84;56.36;96050.94;10323290;28;97197;-61
2022/08/25 07:58:26;;;;;;;3.20;2.75;;;;;;;19.06;55.58;96040.97;10322343;28;96915;-60
2022/08/25 08:03:30;;;;;;;5.63;3.10;;;;;;;19.19;55.80;96048.09;10319527;28;96799;-59
2022/08/25 08:08:53;;;;;;;3.15;2.40;;;;;;;19.40;55.28;96046.19;10326866;28;97132;-60
2022/08/25 08:14:02;;;;;;;3.88;3.15;;;;;;;19.64;55.51;96055.31;10324610;28;96832;-60
2022/08/25 08:19:05;;;;;;;4.22;2.75;;;;;;;19.81;55.31;96064.41;10329880;28;96834;-59
2022/08/25 08:24:08;;;;;;;4.82;3.10;;;;;;;19.85;54.87;96059.53;10327839;28;96792;-60
2022/08/25 08:29:33;;;;;;;4.55;2.88;;;;;;;20.01;54.66;96058.25;10328750;28;96814;-61
2022/08/25 08:34:37;;;;;;;4.97;2.83;;;;;;;20.24;55.12;96046.31;10334726;28;96779;-61
2022/08/25 08:39:40;;;;;;;4.93;3.42;;;;;;;20.50;54.18;96061.25;10334708;28;96942;-61
2022/08/25 08:44:54;;;;;;;3.85;3.35;;;;;;;20.53;54.10;96048.34;10331410;28;96891;-62
2022/08/25 08:50:06;;;;;;;4.22;2.95;;;;;;;20.73;53.69;96045.53;10334774;28;97106;-61
2022/08/25 08:55:19;;;;;;;4.53;3.15;;;;;;;20.87;53.26;96045.47;10332312;28;97161;-60
2022/08/25 09:00:24;;;;;;;3.70;2.90;;;;;;;20.98;52.80;96036.81;10334044;28;97753;-60
2022/08/25 09:05:29;;;;;;;3.50;2.72;;;;;;;21.12;52.66;96037.50;10331446;28;97094;-60
2022/08/25 09:10:57;;;;;;;3.35;2.67;;;;;;;21.37;52.22;96042.75;10333452;28;96770;-60
2022/08/25 09:21:42;;;;;;;4.68;2.83;;;;;;;21.70;51.02;96044.25;10330387;28;97149;-60
2022/08/25 09:26:53;;;;;;;4.70;2.80;;;;;;;21.81;50.79;96042.69;10330790;28;98535;-60
2022/08/25 09:32:02;;;;;;;4.20;2.60;;;;;;;21.95;50.66;96043.34;10329281;28;96864;-61
2022/08/25 09:37:05;;;;;;;3.83;2.67;;;;;;;22.12;50.29;96044.34;10324458;28;97857;-60
2022/08/25 09:42:09;;;;;;;5.43;2.78;;;;;;;22.28;49.97;96034.09;10336485;28;96784;-60
2022/08/25 09:47:21;;;;;;;4.95;2.88;;;;;;;22.41;49.37;96031.25;10339246;28;97677;-60
2022/08/25 09:52:37;;;;;;;5.05;3.38;;;;;;;22.51;49.16;96026.22;10332889;28;97062;-61
2022/08/25 09:57:48;;;;;;;5.00;3.60;;;;;;;22.62;48.71;96014.78;10303943;28;97254;-60
2022/08/25 10:03:05;;;;;;;5.20;3.25;;;;;;;22.77;49.02;96011.69;10300526;28;96754;-60
2022/08/25 10:08:13;;;;;;;5.38;4.03;;;;;;;22.96;48.28;96006.22;10299687;28;97040;-60
2022/08/25 10:13:22;;;;;;;4.75;3.53;;;;;;;23.12;47.50;95991.41;10307605;28;97149;-60
2022/08/25 10:18:29;;;;;;;10.65;3.63;;;;;;;23.29;48.25;95976.34;10301274;28;97000;-61
2022/08/25 10:23:37;;;;;;;5.82;4.07;;;;;;;23.43;47.30;95976.06;10327383;28;96842;-60
2022/08/25 10:28:50;;;;;;;5.55;2.80;;;;;;;23.46;46.54;95973.75;10327647;28;98294;-60
2022/08/25 10:34:09;;;;;;;5.15;2.78;;;;;;;23.55;46.54;95964.34;10328340;28;97104;-60
2022/08/25 10:39:24;;;;;;;5.15;2.95;;;;;;;23.70;46.15;95955.81;10331051;28;98270;-61
2022/08/25 10:50:24;;;;;;;4.32;3.15;;;;;;;23.98;46.37;95942.72;10328773;28;96901;-60
2022/08/25 10:55:34;;;;;;;4.95;2.88;;;;;;;24.15;45.86;95940.13;10330041;28;96857;-61
2022/08/25 11:00:48;;;;;;;3.17;2.08;;;;;;;24.30;45.39;95937.72;10324707;28;96893;-60
2022/08/25 11:06:00;;;;;;;2.90;2.05;;;;;;;24.34;45.14;95933.50;10320457;28;98167;-61
2022/08/25 11:11:09;;;;;;;4.43;2.20;;;;;;;24.46;44.67;95928.88;10322190;28;97025;-61
2022/08/25 11:16:15;;;;;;;3.05;2.17;;;;;;;24.63;44.47;95925.41;10328193;28;98137;-60
2022/08/25 11:21:27;;;;;;;4.10;2.30;;;;;;;24.82;44.38;95923.31;10322347;28;97109;-60
2022/08/25 11:26:33;;;;;;;3.53;2.05;;;;;;;24.91;44.00;95911.16;10319881;28;96989;-62
2022/08/25 11:31:44;;;;;;;4.65;1.90;;;;;;;25.25;43.66;95914.53;10328545;28;96801;-60
2022/08/25 11:36:59;;;;;;;2.80;2.10;;;;;;;25.46;43.31;95897.91;10327576;28;96857;-61
2022/08/25 11:42:17;;;;;;;2.30;1.65;;;;;;;25.52;43.13;95889.69;10331186;28;96777;-60
2022/08/25 11:47:40;;;;;;;3.20;2.00;;;;;;;25.80;42.44;95885.19;10329454;28;96888;-60
2022/08/25 11:52:54;;;;;;;5.13;2.03;;;;;;;26.12;41.59;95881.72;10333803;28;98356;-60
2022/08/25 11:58:29;;;;;;;2.22;1.98;;;;;;;26.25;41.45;95875.16;10318651;28;96781;-60
2022/08/25 12:03:53;;;;;;;2.35;1.92;;;;;;;26.45;41.41;95875.31;10335809;28;96714;-61
2022/08/25 12:09:18;;;;;;;2.78;1.92;;;;;;;26.78;41.01;95873.38;10336496;28;97181;-60
2022/08/25 12:14:42;;;;;;;3.08;2.05;;;;;;;26.98;40.59;95863.88;10326626;28;96928;-60
2022/08/25 12:19:50;;;;;;;3.80;1.88;;;;;;;27.21;39.58;95865.28;10324634;28;97013;-60
2022/08/25 12:25:05;;;;;;;3.63;2.10;;;;;;;27.54;39.17;95847.16;10332180;28;96931;-61
2022/08/25 12:30:17;;;;;;;2.38;1.67;;;;;;;27.64;39.19;95841.84;10334625;28;99090;-60
2022/08/25 12:35:31;;;;;;;5.18;2.10;;;;;;;27.75;38.94;95840.78;10328987;28;97021;-61
2022/08/25 12:40:39;;;;;;;3.13;2.10;;;;;;;27.88;38.44;95841.34;10332906;28;98904;-61
2022/08/25 12:45:44;;;;;;;3.00;2.10;;;;;;;28.10;38.15;95841.88;10330084;28;96994;-60
2022/08/25 12:50:56;;;;;;;3.10;2.10;;;;;;;28.21;37.92;95830.03;10324619;28;97066;-60
2022/08/25 12:56:05;;;;;;;3.90;2.38;;;;;;;28.32;37.64;95820.13;10333403;28;97130;-61
2022/08/25 13:01:17;;;;;;;5.60;2.20;;;;;;;28.48;37.25;95812.84;10325132;28;97941;-60
2022/08/25 13:06:52;;;;;;;2.60;1.92;;;;;;;28.76;36.73;95807.94;10321428;28;97690;-61
2022/08/25 13:12:06;;;;;;;2.55;1.83;;;;;;;29.15;36.35;95809.94;10327107;28;97053;-60
2022/08/25 13:17:09;;;;;;;2.45;1.80;;;;;;;29.23;36.23;95805.88;10323908;28;97070;-61
2022/08/25 13:22:16;;;;;;;3.47;1.90;;;;;;;29.48;35.50;95796.84;10328522;28;96815;-60
2022/08/25 13:27:24;;;;;;;3.13;1.80;;;;;;;30.03;34.88;95794.84;10317040;28;98709;-60
2022/08/25 13:32:29;;;;;;;1.98;1.58;;;;;;;30.20;34.29;95785.56;10322094;28;97132;-60
2022/08/25 13:37:37;;;;;;;1.65;1.45;;;;;;;30.50;33.50;95775.59;10314146;28;96829;-61
2022/08/25 13:42:44;;;;;;;3.67;1.45;;;;;;;30.79;32.96;95776.34;10331977;28;96924;-61
2022/08/25 13:47:54;;;;;;;2.45;1.55;;;;;;;30.82;32.97;95769.56;10318830;28;96929;-61
2022/08/25 13:53:01;;;;;;;2.45;1.70;;;;;;;30.99;32.21;95766.41;10333606;28;96843;-61
2022/08/25 13:58:13;;;;;;;2.00;1.65;;;;;;;31.06;31.79;95769.53;10331652;28;96705;-61
2022/08/25 14:03:31;;;;;;;2.30;1.60;;;;;;;31.37;31.90;95761.06;10322230;28;96850;-61
2022/08/25 14:08:37;;;;;;;1.67;1.48;;;;;;;31.78;30.83;95760.44;10329173;28;96742;-61
2022/08/25 14:13:42;;;;;;;2.22;1.50;;;;;;;32.26;30.41;95760.16;10330918;28;97118;-61
2022/08/25 14:18:48;;;;;;;1.92;1.48;;;;;;;32.42;30.52;95752.59;10331570;28;97529;-61
2022/08/25 14:23:53;;;;;;;2.50;1.40;;;;;;;33.19;29.68;95755.69;10326243;28;96900;-61
2022/08/25 14:28:57;;;;;;;2.60;1.70;;;;;;;34.25;28.32;95748.03;10330697;28;96758;-62
2022/08/25 14:34:02;;;;;;;2.67;1.55;;;;;;;35.25;26.74;95749.34;10322646;28;98155;-61
2022/08/25 14:39:06;;;;;;;1.95;1.40;;;;;;;35.89;26.32;95753.31;10330307;28;98574;-61
2022/08/25 14:44:13;;;;;;;2.22;1.40;;;;;;;36.48;25.42;95749.19;10331136;28;96817;-61
2022/08/25 14:49:21;;;;;;;1.55;1.30;;;;;;;36.71;25.01;95750.56;10324513;28;97257;-61
2022/08/25 14:54:27;;;;;;;4.28;1.50;;;;;;;37.35;24.24;95749.53;10330783;28;98098;-62
2022/08/25 14:59:32;;;;;;;2.03;1.30;;;;;;;37.42;24.12;95746.25;10309378;28;96855;-61
2022/08/25 15:04:36;;;;;;;2.33;1.40;;;;;;;36.44;24.43;95736.22;10329570;28;96832;-62
2022/08/25 15:09:41;;;;;;;3.60;1.55;;;;;;;34.88;26.29;95729.75;10330683;28;98051;-62
2022/08/25 15:14:45;;;;;;;3.15;1.40;;;;;;;33.73;27.48;95732.25;10326821;28;96758;-62
2022/08/25 15:19:48;;;;;;;1.92;1.65;;;;;;;33.69;27.83;95725.84;10318153;28;97035;-61
2022/08/25 15:24:51;;;;;;;4.85;1.42;;;;;;;34.21;27.15;95719.94;10329926;28;96858;-61
2022/08/25 15:29:55;;;;;;;1.83;1.40;;;;;;;35.40;25.80;95715.47;10322937;28;98556;-61
2022/08/25 15:34:59;;;;;;;2.70;1.30;;;;;;;35.84;25.67;95710.81;10322610;28;96828;-62
2022/08/25 15:40:02;;;;;;;2.05;1.23;;;;;;;36.34;24.51;95706.66;10317246;28;97240;-61
2022/08/25 15:45:11;;;;;;;2.67;1.52;;;;;;;36.33;24.62;95706.97;10323845;28;96946;-61
2022/08/25 15:50:19;;;;;;;3.20;1.40;;;;;;;35.63;25.61;95707.91;10328128;28;96802;-61
2022/08/25 15:55:27;;;;;;;2.72;1.40;;;;;;;34.70;26.29;95703.72;10328995;28;98031;-61
2022/08/25 16:00:31;;;;;;;2.30;1.48;;;;;;;33.65;27.45;95708.59;10322453;28;97162;-61
2022/08/25 16:05:35;;;;;;;1.92;1.75;;;;;;;33.45;27.59;95705.25;10324083;28;97891;-61
2022/08/25 16:10:41;;;;;;;3.00;1.40;;;;;;;34.35;26.57;95698.97;10318872;28;98345;-61
2022/08/25 16:15:48;;;;;;;2.42;1.40;;;;;;;35.06;26.51;95699.91;10325883;28;98801;-61
2022/08/25 16:20:56;;;;;;;2.47;1.33;;;;;;;35.28;26.23;95691.66;10325923;28;97672;-61
2022/08/25 16:25:59;;;;;;;1.95;1.02;;;;;;;35.84;24.61;95696.41;10317685;28;97309;-63
2022/08/25 16:31:06;;;;;;;1.58;1.17;;;;;;;35.87;24.76;95691.13;10332265;28;96911;-61
2022/08/25 16:36:12;;;;;;;1.85;1.10;;;;;;;35.87;23.97;95691.13;10333615;28;97124;-61
2022/08/25 16:41:18;;;;;;;1.75;1.00;;;;;;;35.83;23.09;95700.25;10330750;28;97870;-61
2022/08/25 16:46:22;;;;;;;1.30;0.90;;;;;;;35.24;23.59;95701.56;10334346;28;97081;-62
2022/08/25 16:51:25;;;;;;;1.02;0.90;;;;;;;34.72;24.21;95698.78;10323004;28;97094;-61
2022/08/25 16:56:36;;;;;;;1.15;0.90;;;;;;;34.58;23.97;95701.56;10324746;28;96939;-61
2022/08/25 17:01:41;;;;;;;2.10;1.60;;;;;;;34.17;24.64;95697.28;10331153;28;96735;-61
2022/08/25 17:06:46;;;;;;;2.00;1.23;;;;;;;33.92;24.79;95706.88;10334765;28;96800;-61
2022/08/25 17:11:55;;;;;;;1.00;0.82;;;;;;;33.87;24.70;95707.00;10330963;28;96737;-61
2022/08/25 17:17:00;;;;;;;1.13;0.85;;;;;;;33.67;24.87;95711.00;10330331;28;96865;-61
2022/08/25 17:22:02;;;;;;;1.65;1.20;;;;;;;33.40;24.90;95713.50;10321313;28;97780;-62
2022/08/25 17:27:08;;;;;;;2.38;1.20;;;;;;;32.74;26.31;95709.53;10315565;28;98586;-71
2022/08/25 17:32:12;;;;;;;2.97;0.80;;;;;;;32.01;27.10;95706.59;10322095;28;97211;-63
2022/08/25 17:37:15;;;;;;;1.50;1.00;;;;;;;31.26;27.94;95702.88;10332136;28;99288;-63
2022/08/25 17:42:19;;;;;;;1.90;1.30;;;;;;;30.57;29.12;95697.88;10336575;28;96910;-63
2022/08/25 17:47:23;;;;;;;2.25;1.10;;;;;;;30.02;29.68;95695.50;10328165;28;98215;-63
2022/08/25 17:52:26;;;;;;;1.77;1.30;;;;;;;29.95;30.03;95693.13;10324323;28;98059;-62
2022/08/25 17:57:29;;;;;;;1.67;1.20;;;;;;;29.73;30.61;95685.53;10328004;28;96931;-63
2022/08/25 18:02:33;;;;;;;1.95;1.45;;;;;;;29.34;31.53;95689.84;10334179;28;98277;-63
2022/08/25 18:07:36;;;;;;;1.67;1.52;;;;;;;29.09;32.02;95698.09;10329830;28;96759;-62
2022/08/25 18:12:39;;;;;;;2.90;1.70;;;;;;;28.65;33.02;95698.84;10322793;28;96948;-61
2022/08/25 18:17:46;;;;;;;1.90;1.70;;;;;;;28.50;33.62;95708.59;10327502;28;97745;-62
2022/08/25 18:22:50;;;;;;;3.33;2.03;;;;;;;28.27;34.11;95711.88;10328929;28;97549;-62
2022/08/25 18:27:53;;;;;;;2.10;1.65;;;;;;;28.18;34.32;95717.78;10326480;28;96777;-62
2022/08/25 18:32:58;;;;;;;1.52;1.40;;;;;;;27.99;34.64;95719.44;10327866;28;98530;-62
2022/08/25 18:43:22;;;;;;;2.40;1.50;;;;;;;27.55;35.61;95731.53;10329197;28;97563;-61
2022/08/25 18:48:27;;;;;;;2.38;1.75;;;;;;;27.48;35.76;95737.16;10314466;28;99957;-62
2022/08/25 18:53:32;;;;;;;3.75;1.80;;;;;;;27.31;36.18;95748.13;10327393;28;96857;-61
2022/08/25 18:58:52;;;;;;;2.85;1.70;;;;;;;27.20;36.43;95748.41;10323700;28;96976;-61
2022/08/25 19:03:56;;;;;;;4.10;1.97;;;;;;;27.17;36.29;95746.25;10326237;28;97074;-61
2022/08/25 19:09:00;;;;;;;3.00;1.80;;;;;;;27.09;36.55;95759.09;10326239;28;96740;-61
2022/08/25 19:14:04;;;;;;;2.70;1.60;;;;;;;26.95;36.79;95757.97;10327971;28;96885;-61
2022/08/25 19:19:15;;;;;;;6.13;2.00;;;;;;;26.85;37.24;95757.91;10329435;28;96825;-62
2022/08/25 19:24:18;;;;;;;4.05;1.90;;;;;;;26.72;37.48;95768.03;10324531;28;98003;-61
2022/08/25 19:29:22;;;;;;;2.43;1.87;;;;;;;26.66;37.39;95765.63;10324979;28;98116;-61
2022/08/25 19:34:29;;;;;;;6.55;5.72;;;;;;;26.63;37.64;95774.97;10324851;28;98839;-61
2022/08/25 19:39:34;;;;;;;3.35;2.22;;;;;;;26.53;37.77;95772.25;10325092;28;98044;-61
2022/08/25 19:44:41;;;;;;;4.40;3.60;;;;;;;26.46;37.96;95787.75;10327743;28;96998;-63
2022/08/25 19:49:46;;;;;;;3.40;2.40;;;;;;;26.35;38.21;95793.03;10323607;28;96938;-61
2022/08/25 19:54:51;;;;;;;3.55;2.10;;;;;;;26.24;38.38;95783.31;10322343;28;97290;-61
2022/08/25 19:59:54;;;;;;;3.95;1.98;;;;;;;26.14;38.88;95781.38;10328614;28;97071;-64
2022/08/25 20:04:59;;;;;;;2.53;1.90;;;;;;;26.07;39.08;95799.53;10336311;28;97261;-61
2022/08/25 20:10:04;;;;;;;2.03;1.67;;;;;;;26.07;38.52;95798.69;10333810;28;97729;-63
2022/08/25 20:15:09;;;;;;;2.67;2.10;;;;;;;26.12;38.67;95807.59;10332045;28;97619;-61
2022/08/25 20:20:16;;;;;;;1.92;1.48;;;;;;;26.15;37.83;95799.06;10334214;28;96873;-62
2022/08/25 20:25:24;;;;;;;2.90;1.63;;;;;;;26.16;37.69;95808.69;10320702;28;96836;-61
2022/08/25 20:30:29;;;;;;;3.22;1.80;;;;;;;26.06;37.89;95813.16;10328968;28;96832;-62
2022/08/25 20:35:34;;;;;;;2.03;1.35;;;;;;;26.05;37.32;95811.53;10331570;28;96798;-62
2022/08/25 20:40:39;;;;;;;4.00;1.70;;;;;;;26.00;37.24;95815.78;10331739;28;96794;-64
2022/08/25 20:45:45;;;;;;;5.20;2.03;;;;;;;25.90;37.12;95821.06;10333627;28;97204;-61
2022/08/25 20:50:49;;;;;;;2.50;1.50;;;;;;;25.79;37.47;95819.38;10319987;28;98953;-62
2022/08/25 20:55:59;;;;;;;2.70;1.65;;;;;;;25.70;37.18;95827.03;10330971;28;96899;-61
2022/08/25 21:01:02;;;;;;;5.72;2.95;;;;;;;25.61;37.35;95834.72;10331993;28;96967;-61
2022/08/25 21:06:08;;;;;;;6.47;1.67;;;;;;;25.50;36.69;95826.84;10329306;28;97717;-61
2022/08/25 21:11:11;;;;;;;5.60;3.88;;;;;;;25.53;36.77;95837.84;10324097;28;96888;-61
2022/08/25 21:16:16;;;;;;;2.35;1.50;;;;;;;25.49;36.70;95828.69;10333256;28;96857;-61
2022/08/25 21:21:22;;;;;;;3.10;1.45;;;;;;;25.46;36.03;95839.06;10332232;28;96810;-61
2022/08/25 21:26:29;;;;;;;3.70;1.63;;;;;;;25.28;37.21;95834.88;10330912;28;96821;-62
2022/08/25 21:31:32;;;;;;;3.30;1.80;;;;;;;25.16;38.37;95833.13;10332478;28;98738;-61
2022/08/25 21:36:36;;;;;;;3.03;1.87;;;;;;;24.99;38.97;95837.75;10327224;28;96935;-63
2022/08/25 21:41:41;;;;;;;2.40;1.48;;;;;;;24.96;38.01;95836.41;10331738;28;96879;-64
2022/08/25 21:46:44;;;;;;;;;;;;;;;24.96;38.16;95843.63;10330870;28;96965;-62
2022/08/25 21:51:57;;;;;;;3.00;2.17;;;;;;;24.87;39.54;95838.69;10331333;28;96962;-61
2022/08/25 21:57:05;;;;;;;3.92;2.50;;;;;;;24.68;41.05;95843.50;10316429;28;97401;-69
2022/08/25 22:02:11;;;;;;;3.53;2.00;;;;;;;24.65;41.45;95838.63;10322689;28;96876;-68
2022/08/25 22:07:16;;;;;;;3.78;2.47;;;;;;;24.59;41.86;95834.31;10325443;28;98732;-68
2022/08/25 22:12:19;;;;;;;3.97;2.47;;;;;;;24.48;42.25;95837.88;10333653;28;98571;-68
2022/08/25 22:17:22;;;;;;;2.20;1.88;;;;;;;24.31;41.85;95833.38;10329689;28;97237;-68
2022/08/25 22:22:27;;;;;;;2.90;1.95;;;;;;;24.37;40.98;95833.44;10321615;28;97091;-68
2022/08/25 22:27:30;;;;;;;3.65;2.40;;;;;;;24.34;41.63;95837.41;10318657;28;97787;-68
2022/08/25 22:32:33;;;;;;;3.70;2.55;;;;;;;24.19;42.28;95834.50;10326554;28;97705;-68
2022/08/25 22:37:37;;;;;;;3.13;2.28;;;;;;;24.10;42.50;95836.78;10332328;28;96880;-68
2022/08/25 22:42:42;;;;;;;4.82;2.25;;;;;;;24.02;43.48;95829.97;10325603;28;99378;-68
2022/08/25 22:47:51;;;;;;;5.07;2.47;;;;;;;23.90;43.87;95837.25;10321169;28;98722;-68
2022/08/25 22:52:56;;;;;;;3.17;2.20;;;;;;;23.79;44.06;95830.09;10317716;28;98591;-68
2022/08/25 22:57:59;;;;;;;3.08;2.30;;;;;;;23.67;44.69;95827.50;10309085;28;98515;-68
2022/08/25 23:03:02;;;;;;;3.28;2.40;;;;;;;23.64;43.74;95830.66;10309267;28;97672;-68
2022/08/25 23:08:09;;;;;;;2.47;1.90;;;;;;;23.54;44.59;95824.09;10313505;28;98334;-68
2022/08/25 23:13:12;;;;;;;;;;;;;;;23.45;44.19;95838.88;10313536;28;98499;-68
2022/08/25 23:18:35;;;;;;;3.60;2.30;;;;;;;23.45;44.84;95835.41;10310734;28;98341;-68
2022/08/25 23:23:46;;;;;;;3.90;2.67;;;;;;;23.36;46.40;95834.97;10310138;28;98392;-68
2022/08/25 23:28:51;;;;;;;4.05;2.75;;;;;;;23.04;47.51;95835.38;10309701;28;98788;-68
2022/08/25 23:33:53;;;;;;;2.53;2.33;;;;;;;22.68;47.27;95831.19;10313763;28;98550;-68
2022/08/25 23:38:58;;;;;;;3.05;1.90;;;;;;;22.53;47.09;95827.16;10317539;28;96797;-68
2022/08/25 23:44:00;;;;;;;;;;;;;;;22.56;46.38;95829.34;10319642;28;96904;-67
2022/08/25 23:49:07;;;;;;;5.28;2.50;;;;;;;22.53;47.43;95821.03;10321488;28;96951;-68
2022/08/25 23:54:12;;;;;;;3.55;2.33;;;;;;;22.15;48.46;95839.06;10319072;28;98647;-68
2022/08/25 23:59:15;;;;;;;4.15;2.42;;;;;;;22.18;48.59;95827.94;10316137;28;97778;-67
